ロングイェールビーン の空港の天気 - METARとTAF

スヴァールバル空港 ( ENSB / LYR ) - スヴァールバル諸島・ヤンマイエン島 ロングイェールビーン
飛行場実況気象(Metar)
観測時間07/22 19:50 CEST (07/22 17:50 UTC)
風向・風速西 1m/s
視程10km以上
天気現象
少しの雲 雲底高度 460m
全天の4割程度の雲 雲底高度 640m
全天の8割程度の雲 雲底高度 1370m
気温7℃
湿度87%
気圧1005hPa
METARENSB 221750Z 28002KT 9999 FEW015 SCT021 BKN045 07/05 Q1005 RMK WIND 1400FT 00000KT
過去の天気等 Google飛行場航空写真 Wunderground天気予報

過去48時間のMETAR

飛行場予報(TAF)
発表時間: -
TAF ENSB 2218/2318 VRB05KT 9999 -RA FEW012 BKN030